KHGR/HGR METAR and TAF weather

Enter ICAO airport designator
Station Type Date Time Source
KHGR METAR 2020/07/05 03:53 UTC NOAA

KHGR 050353Z AUTO 00000KT 10SM BKN120 27/18 A2996 RMK AO2 SLP147 T02720183


Station Type Date Time Source
KHGR Decoded METAR 2020/07/05 03:53 UTC NOAA

HAGERSTOWN REGIONAL AIRPORT, MD, United States (KHGR) 39-42N 077-44W 224M
Jul 04, 2020 - 11:53 PM EDT / 2020.07.05 0353 UTC
Wind: Calm:0
Visibility: 10 mile(s):0
Sky conditions: mostly cloudy
Temperature: 81.0 F (27.2 C)
Dew Point: 64.9 F (18.3 C)
Relative Humidity: 58%
Pressure (altimeter): 29.96 in. Hg (1014 hPa)
ob: KHGR 050353Z AUTO 00000KT 10SM BKN120 27/18 A2996 RMK AO2 SLP147 T02720183
cycle: 4

Station Type Date Time Source
KHGR TAF UTC NOAA

Error!

Example: see airport list